M/V Crosby Hustler — WDA3941 — position and weather

sailwx.info

Track history (hours):
 
Tides and Currents Weather Stations Pressure Air Temp Water Temp Dewpoint Dewpoint Depression Visibility Wind Speed Wind Dir Waves Ship Positions

M/V Crosby Hustler

Owner: CROSBY INLAND MARINE LLC, GOLDEN MEADOW, LA. More information available from US FCC via Universal Licensing System and Coast Guard Vessel Documentation Center.

Last reported at 2015-Feb-26 00:29 UTC. Time now 2015-Mar-02 20:38 UTC.
Position N 29°22' W 094°47'.

Length 18 m; draft 9 m.

Type: Tug. MMSI: 366804030.

Date/timePositionNaut miles runAvg speedWind from/ knotsBaromVisibWave heightAir tempDewpointWater temp
2015-Feb-26 00:29N 29°22' W 094°47'11 4.8
2015-Feb-25 22:10N 29°17' W 094°58'  
2015-Feb-20 04:16N 29°26' W 094°50'4 6.0
2015-Feb-20 03:33N 29°29' W 094°52'6 5.8
2015-Feb-20 02:33N 29°34' W 094°56'6 5.5
2015-Feb-20 01:33N 29°39' W 094°58'5 5.1
2015-Feb-20 00:33N 29°44' W 095°01'4 4.3
2015-Feb-19 23:33N 29°45' W 095°06'5 5.1
2015-Feb-19 22:33N 29°44' W 095°12'2 2.3
2015-Feb-19 21:32N 29°43' W 095°14'0 0.0
2015-Feb-19 20:29N 29°43' W 095°14'0 0.0
2015-Feb-19 19:32N 29°43' W 095°14'0 0.0
2015-Feb-19 18:32N 29°43' W 095°14'0 0.0
2015-Feb-19 17:32N 29°43' W 095°14'0 0.0
2015-Feb-19 16:32N 29°43' W 095°14'0 0.0
2015-Feb-19 15:32N 29°43' W 095°14'0 0.0
2015-Feb-19 14:32N 29°43' W 095°14'0 0.0
2015-Feb-19 13:32N 29°43' W 095°14'0 0.1
2015-Feb-19 12:33N 29°43' W 095°14'4 4.1
2015-Feb-19 11:33N 29°45' W 095°10'4 3.8
2015-Feb-19 10:33N 29°46' W 095°06'1 0.7
2015-Feb-19 09:33N 29°47' W 095°06'0 0.0
2015-Feb-19 08:33N 29°47' W 095°06'0 0.0
2015-Feb-19 07:33N 29°47' W 095°06'1 1.3
2015-Feb-19 06:32N 29°45' W 095°06'0 0.0
2015-Feb-19 05:33N 29°45' W 095°06'1 0.6
2015-Feb-19 04:33N 29°46' W 095°05'1 1.1
2015-Feb-19 03:32N 29°47' W 095°06'0 0.0
2015-Feb-19 02:32N 29°47' W 095°06'0 0.0
2015-Feb-19 01:32N 29°47' W 095°06'1 1.2
2015-Feb-19 00:33N 29°46' W 095°05'6 6.0
2015-Feb-18 23:33N 29°42' W 094°60'7 6.9
2015-Feb-18 22:33N 29°36' W 094°57'7 7.4
2015-Feb-18 21:33N 29°30' W 094°52'  
Track history (hours):
 
Tides and Currents Weather Stations Pressure Air Temp Water Temp Dewpoint Dewpoint Depression Visibility Wind Speed Wind Dir Waves Ship Positions

M/V Crosby Hustler

Owner: CROSBY INLAND MARINE LLC, GOLDEN MEADOW, LA. More information available from US FCC via Universal Licensing System and Coast Guard Vessel Documentation Center.

Last reported at 2015-Feb-26 00:29 UTC. Time now 2015-Mar-02 20:38 UTC.
Position N 29°22' W 094°47'.

Length 18 m; draft 9 m.

Type: Tug. MMSI: 366804030.

Date/timePositionNaut miles runAvg speedWind from/ knotsBaromVisibWave heightAir tempDewpointWater temp
2015-Feb-26 00:29N 29°22' W 094°47'11 4.8
2015-Feb-25 22:10N 29°17' W 094°58'  
2015-Feb-20 04:16N 29°26' W 094°50'4 6.0
2015-Feb-20 03:33N 29°29' W 094°52'6 5.8
2015-Feb-20 02:33N 29°34' W 094°56'6 5.5
2015-Feb-20 01:33N 29°39' W 094°58'5 5.1
2015-Feb-20 00:33N 29°44' W 095°01'4 4.3
2015-Feb-19 23:33N 29°45' W 095°06'5 5.1
2015-Feb-19 22:33N 29°44' W 095°12'2 2.3
2015-Feb-19 21:32N 29°43' W 095°14'0 0.0
2015-Feb-19 20:29N 29°43' W 095°14'0 0.0
2015-Feb-19 19:32N 29°43' W 095°14'0 0.0
2015-Feb-19 18:32N 29°43' W 095°14'0 0.0
2015-Feb-19 17:32N 29°43' W 095°14'0 0.0
2015-Feb-19 16:32N 29°43' W 095°14'0 0.0
2015-Feb-19 15:32N 29°43' W 095°14'0 0.0
2015-Feb-19 14:32N 29°43' W 095°14'0 0.0
2015-Feb-19 13:32N 29°43' W 095°14'0 0.1
2015-Feb-19 12:33N 29°43' W 095°14'4 4.1
2015-Feb-19 11:33N 29°45' W 095°10'4 3.8
2015-Feb-19 10:33N 29°46' W 095°06'1 0.7
2015-Feb-19 09:33N 29°47' W 095°06'0 0.0
2015-Feb-19 08:33N 29°47' W 095°06'0 0.0
2015-Feb-19 07:33N 29°47' W 095°06'1 1.3
2015-Feb-19 06:32N 29°45' W 095°06'0 0.0
2015-Feb-19 05:33N 29°45' W 095°06'1 0.6
2015-Feb-19 04:33N 29°46' W 095°05'1 1.1
2015-Feb-19 03:32N 29°47' W 095°06'0 0.0
2015-Feb-19 02:32N 29°47' W 095°06'0 0.0
2015-Feb-19 01:32N 29°47' W 095°06'1 1.2
2015-Feb-19 00:33N 29°46' W 095°05'6 6.0
2015-Feb-18 23:33N 29°42' W 094°60'7 6.9
2015-Feb-18 22:33N 29°36' W 094°57'7 7.4
2015-Feb-18 21:33N 29°30' W 094°52'  

Dump ship's entire track history